sensor_id;sensor_type;location;lat;lon;timestamp;pressure;altitude;pressure_sealevel;temperature;humidity
78909;BME280;68298;37.368;127.108;2023-03-14T00:01:36;100849.28;;;16.18;28.09
78909;BME280;68298;37.368;127.108;2023-03-14T00:04:06;100839.28;;;15.95;28.68
78909;BME280;68298;37.368;127.108;2023-03-14T00:06:36;100850.34;;;15.68;29.70
78909;BME280;68298;37.368;127.108;2023-03-14T00:09:07;100853.91;;;15.50;30.21
78909;BME280;68298;37.368;127.108;2023-03-14T00:11:38;100846.72;;;15.71;29.11
78909;BME280;68298;37.368;127.108;2023-03-14T00:14:08;100841.66;;;15.68;29.24
78909;BME280;68298;37.368;127.108;2023-03-14T00:16:40;100833.47;;;15.58;28.57
78909;BME280;68298;37.368;127.108;2023-03-14T00:19:10;100835.34;;;15.87;28.62
78909;BME280;68298;37.368;127.108;2023-03-14T00:21:41;100839.25;;;15.47;29.92
78909;BME280;68298;37.368;127.108;2023-03-14T00:24:12;100837.16;;;15.38;28.73
78909;BME280;68298;37.368;127.108;2023-03-14T00:26:43;100845.97;;;15.35;28.10
78909;BME280;68298;37.368;127.108;2023-03-14T00:29:13;100841.25;;;15.26;28.15
78909;BME280;68298;37.368;127.108;2023-03-14T00:31:45;100833.28;;;15.12;28.86
78909;BME280;68298;37.368;127.108;2023-03-14T00:34:16;100835.44;;;15.04;28.12
78909;BME280;68298;37.368;127.108;2023-03-14T00:36:49;100840.31;;;14.94;28.14
78909;BME280;68298;37.368;127.108;2023-03-14T00:39:20;100838.94;;;15.04;27.83
78909;BME280;68298;37.368;127.108;2023-03-14T00:41:51;100843.69;;;14.96;27.90
78909;BME280;68298;37.368;127.108;2023-03-14T00:44:22;100844.31;;;14.84;27.79
78909;BME280;68298;37.368;127.108;2023-03-14T00:46:52;100841.59;;;15.03;27.29
78909;BME280;68298;37.368;127.108;2023-03-14T00:49:25;100845.97;;;14.85;27.72
78909;BME280;68298;37.368;127.108;2023-03-14T00:51:55;100834.72;;;14.84;27.86
78909;BME280;68298;37.368;127.108;2023-03-14T00:54:26;100851.97;;;14.70;28.37
78909;BME280;68298;37.368;127.108;2023-03-14T00:56:57;100836.72;;;14.79;28.04
78909;BME280;68298;37.368;127.108;2023-03-14T00:59:27;100830.47;;;14.66;27.95
78909;BME280;68298;37.368;127.108;2023-03-14T01:01:58;100833.28;;;14.61;27.69
78909;BME280;68298;37.368;127.108;2023-03-14T01:04:29;100833.44;;;14.58;27.36
78909;BME280;68298;37.368;127.108;2023-03-14T01:07:00;100821.31;;;14.57;27.10
78909;BME280;68298;37.368;127.108;2023-03-14T01:09:32;100832.69;;;14.56;27.15
78909;BME280;68298;37.368;127.108;2023-03-14T01:12:02;100823.25;;;14.54;26.87
78909;BME280;68298;37.368;127.108;2023-03-14T01:14:33;100820.78;;;14.51;27.29
78909;BME280;68298;37.368;127.108;2023-03-14T01:17:04;100821.63;;;14.51;26.93
78909;BME280;68298;37.368;127.108;2023-03-14T01:19:35;100819.38;;;14.44;27.06
78909;BME280;68298;37.368;127.108;2023-03-14T01:22:06;100812.25;;;14.47;26.97
78909;BME280;68298;37.368;127.108;2023-03-14T01:24:38;100808.66;;;14.50;26.57
78909;BME280;68298;37.368;127.108;2023-03-14T01:27:09;100798.66;;;14.41;26.94
78909;BME280;68298;37.368;127.108;2023-03-14T01:29:39;100801.34;;;14.39;26.01
78909;BME280;68298;37.368;127.108;2023-03-14T01:32:10;100806.47;;;14.41;27.09
78909;BME280;68298;37.368;127.108;2023-03-14T01:34:41;100796.28;;;14.36;26.77
78909;BME280;68298;37.368;127.108;2023-03-14T01:37:12;100793.00;;;14.32;27.00
78909;BME280;68298;37.368;127.108;2023-03-14T01:39:42;100781.44;;;14.38;26.85
78909;BME280;68298;37.368;127.108;2023-03-14T01:42:13;100789.38;;;14.35;26.52
78909;BME280;68298;37.368;127.108;2023-03-14T01:45:02;100795.75;;;14.29;26.89
78909;BME280;68298;37.368;127.108;2023-03-14T01:47:33;100804.19;;;14.34;26.25
78909;BME280;68298;37.368;127.108;2023-03-14T01:50:08;100801.06;;;14.28;27.06
78909;BME280;68298;37.368;127.108;2023-03-14T01:52:47;100792.94;;;14.51;26.16
78909;BME280;68298;37.368;127.108;2023-03-14T01:55:24;100786.63;;;14.90;26.65
78909;BME280;68298;37.368;127.108;2023-03-14T01:58:01;100785.00;;;15.21;26.52
78909;BME280;68298;37.368;127.108;2023-03-14T02:00:34;100787.03;;;15.63;26.27
78909;BME280;68298;37.368;127.108;2023-03-14T02:03:15;100777.78;;;15.89;25.32
78909;BME280;68298;37.368;127.108;2023-03-14T02:05:47;100771.94;;;16.00;24.25
78909;BME280;68298;37.368;127.108;2023-03-14T02:08:22;100767.78;;;16.11;24.25
78909;BME280;68298;37.368;127.108;2023-03-14T02:10:57;100765.78;;;16.31;24.03
78909;BME280;68298;37.368;127.108;2023-03-14T02:14:04;100759.34;;;16.36;24.51
78909;BME280;68298;37.368;127.108;2023-03-14T02:17:16;100748.09;;;16.50;23.83
78909;BME280;68298;37.368;127.108;2023-03-14T02:22:55;100757.03;;;16.46;23.77
78909;BME280;68298;37.368;127.108;2023-03-14T02:25:53;100741.34;;;16.46;22.76
78909;BME280;68298;37.368;127.108;2023-03-14T02:28:27;100740.34;;;16.49;22.96
78909;BME280;68298;37.368;127.108;2023-03-14T02:31:00;100735.13;;;16.49;22.22
78909;BME280;68298;37.368;127.108;2023-03-14T02:33:33;100739.50;;;16.48;23.22
78909;BME280;68298;37.368;127.108;2023-03-14T02:36:07;100731.84;;;16.45;21.98
78909;BME280;68298;37.368;127.108;2023-03-14T02:41:11;100735.75;;;16.52;21.19
78909;BME280;68298;37.368;127.108;2023-03-14T02:43:47;100738.09;;;16.57;21.91
78909;BME280;68298;37.368;127.108;2023-03-14T02:46:21;100743.03;;;16.61;21.76
78909;BME280;68298;37.368;127.108;2023-03-14T02:49:08;100742.31;;;16.59;21.16
78909;BME280;68298;37.368;127.108;2023-03-14T02:51:42;100742.31;;;16.59;21.77
78909;BME280;68298;37.368;127.108;2023-03-14T02:54:15;100715.16;;;16.76;21.09
78909;BME280;68298;37.368;127.108;2023-03-14T02:56:46;100726.25;;;16.65;21.71
78909;BME280;68298;37.368;127.108;2023-03-14T02:59:16;100719.16;;;16.67;21.50
78909;BME280;68298;37.368;127.108;2023-03-14T03:01:59;100720.66;;;16.72;21.45
78909;BME280;68298;37.368;127.108;2023-03-14T03:04:31;100723.00;;;16.76;20.06
78909;BME280;68298;37.368;127.108;2023-03-14T03:07:01;100723.09;;;16.75;20.59
78909;BME280;68298;37.368;127.108;2023-03-14T03:09:32;100722.38;;;16.87;21.15
78909;BME280;68298;37.368;127.108;2023-03-14T03:12:02;100714.56;;;17.00;21.48
78909;BME280;68298;37.368;127.108;2023-03-14T03:14:33;100718.41;;;17.08;22.83
78909;BME280;68298;37.368;127.108;2023-03-14T03:17:05;100715.88;;;17.21;22.19
78909;BME280;68298;37.368;127.108;2023-03-14T03:19:38;100717.06;;;17.30;22.56
78909;BME280;68298;37.368;127.108;2023-03-14T03:22:11;100713.69;;;17.28;23.20
78909;BME280;68298;37.368;127.108;2023-03-14T03:24:42;100708.69;;;17.37;22.90
78909;BME280;68298;37.368;127.108;2023-03-14T03:27:14;100710.66;;;17.34;23.15
78909;BME280;68298;37.368;127.108;2023-03-14T03:29:44;100699.66;;;17.29;22.91
78909;BME280;68298;37.368;127.108;2023-03-14T03:32:15;100712.16;;;17.38;23.79
78909;BME280;68298;37.368;127.108;2023-03-14T03:34:46;100703.19;;;17.42;22.42
78909;BME280;68298;37.368;127.108;2023-03-14T03:37:16;100697.78;;;17.31;23.60
78909;BME280;68298;37.368;127.108;2023-03-14T03:39:49;100680.19;;;17.33;23.39
78909;BME280;68298;37.368;127.108;2023-03-14T03:42:20;100677.81;;;17.42;23.59
78909;BME280;68298;37.368;127.108;2023-03-14T03:44:51;100678.47;;;17.46;23.32
78909;BME280;68298;37.368;127.108;2023-03-14T03:47:23;100675.97;;;17.44;22.77
78909;BME280;68298;37.368;127.108;2023-03-14T03:49:56;100677.34;;;17.50;22.39
78909;BME280;68298;37.368;127.108;2023-03-14T03:52:26;100681.81;;;17.48;22.32
78909;BME280;68298;37.368;127.108;2023-03-14T03:54:57;100667.28;;;17.57;22.65
78909;BME280;68298;37.368;127.108;2023-03-14T03:57:28;100658.53;;;17.70;22.37
78909;BME280;68298;37.368;127.108;2023-03-14T03:59:59;100652.88;;;17.64;21.88
78909;BME280;68298;37.368;127.108;2023-03-14T04:02:40;100658.72;;;17.55;21.45
78909;BME280;68298;37.368;127.108;2023-03-14T04:05:15;100652.81;;;17.51;22.64
78909;BME280;68298;37.368;127.108;2023-03-14T04:07:52;100641.75;;;17.60;21.79
78909;BME280;68298;37.368;127.108;2023-03-14T04:10:26;100640.06;;;17.72;21.92
78909;BME280;68298;37.368;127.108;2023-03-14T04:13:09;100629.31;;;17.77;22.23
78909;BME280;68298;37.368;127.108;2023-03-14T04:15:42;100631.88;;;17.78;22.70
78909;BME280;68298;37.368;127.108;2023-03-14T04:18:21;100611.56;;;17.67;22.32
78909;BME280;68298;37.368;127.108;2023-03-14T04:20:54;100629.66;;;17.58;22.12
78909;BME280;68298;37.368;127.108;2023-03-14T04:23:37;100627.69;;;17.61;22.20
78909;BME280;68298;37.368;127.108;2023-03-14T04:26:07;100623.59;;;17.57;22.67
78909;BME280;68298;37.368;127.108;2023-03-14T04:28:38;100607.56;;;17.62;22.56
78909;BME280;68298;37.368;127.108;2023-03-14T04:31:12;100604.25;;;17.73;22.58
78909;BME280;68298;37.368;127.108;2023-03-14T04:33:43;100603.22;;;17.75;22.66
78909;BME280;68298;37.368;127.108;2023-03-14T04:36:16;100587.78;;;17.70;23.58
78909;BME280;68298;37.368;127.108;2023-03-14T04:38:46;100589.56;;;17.70;21.83
78909;BME280;68298;37.368;127.108;2023-03-14T04:41:20;100589.56;;;17.70;22.21
78909;BME280;68298;37.368;127.108;2023-03-14T04:43:50;100592.03;;;17.86;22.08
78909;BME280;68298;37.368;127.108;2023-03-14T04:46:22;100585.84;;;18.00;22.56
78909;BME280;68298;37.368;127.108;2023-03-14T04:48:52;100575.97;;;17.90;22.96
78909;BME280;68298;37.368;127.108;2023-03-14T04:51:24;100571.16;;;17.84;23.69
78909;BME280;68298;37.368;127.108;2023-03-14T04:53:56;100571.06;;;17.86;22.96
78909;BME280;68298;37.368;127.108;2023-03-14T04:56:28;100561.19;;;17.77;23.16
78909;BME280;68298;37.368;127.108;2023-03-14T04:59:00;100560.16;;;17.79;23.28
78909;BME280;68298;37.368;127.108;2023-03-14T05:01:32;100553.84;;;17.82;24.55
78909;BME280;68298;37.368;127.108;2023-03-14T05:04:35;100549.56;;;17.81;25.67
78909;BME280;68298;37.368;127.108;2023-03-14T05:07:31;100544.66;;;17.89;25.97
78909;BME280;68298;37.368;127.108;2023-03-14T05:10:18;100539.63;;;17.99;26.74
78909;BME280;68298;37.368;127.108;2023-03-14T05:13:09;100546.53;;;18.00;27.72
78909;BME280;68298;37.368;127.108;2023-03-14T05:16:05;100541.50;;;17.97;27.98
78909;BME280;68298;37.368;127.108;2023-03-14T05:18:50;100544.22;;;17.95;28.33
78909;BME280;68298;37.368;127.108;2023-03-14T05:21:38;100541.81;;;18.05;28.09
78909;BME280;68298;37.368;127.108;2023-03-14T05:24:29;100532.59;;;18.12;27.24
78909;BME280;68298;37.368;127.108;2023-03-14T05:27:03;100542.63;;;18.18;27.05
78909;BME280;68298;37.368;127.108;2023-03-14T05:30:10;100536.34;;;18.08;28.39
78909;BME280;68298;37.368;127.108;2023-03-14T05:33:07;100535.72;;;18.04;29.45
78909;BME280;68298;37.368;127.108;2023-03-14T05:35:46;100540.75;;;18.07;27.89
78909;BME280;68298;37.368;127.108;2023-03-14T05:38:35;100527.84;;;18.04;28.98
78909;BME280;68298;37.368;127.108;2023-03-14T05:41:23;100523.97;;;18.10;29.22
78909;BME280;68298;37.368;127.108;2023-03-14T05:44:14;100525.25;;;18.04;28.82
78909;BME280;68298;37.368;127.108;2023-03-14T05:47:10;100527.97;;;18.03;28.53
78909;BME280;68298;37.368;127.108;2023-03-14T05:50:13;100524.28;;;18.05;28.87
78909;BME280;68298;37.368;127.108;2023-03-14T05:53:00;100534.44;;;18.10;29.59
78909;BME280;68298;37.368;127.108;2023-03-14T05:55:59;100520.50;;;18.09;30.22
78909;BME280;68298;37.368;127.108;2023-03-14T05:58:48;100514.75;;;18.04;29.66
78909;BME280;68298;37.368;127.108;2023-03-14T06:01:33;100514.22;;;17.99;28.83
78909;BME280;68298;37.368;127.108;2023-03-14T06:04:15;100516.22;;;18.21;28.33
78909;BME280;68298;37.368;127.108;2023-03-14T06:06:51;100520.38;;;18.24;27.86
78909;BME280;68298;37.368;127.108;2023-03-14T06:09:22;100514.88;;;18.39;27.24
78909;BME280;68298;37.368;127.108;2023-03-14T06:11:56;100514.13;;;18.13;27.92
78909;BME280;68298;37.368;127.108;2023-03-14T06:14:30;100515.47;;;18.19;27.80
78909;BME280;68298;37.368;127.108;2023-03-14T06:17:01;100516.34;;;18.07;27.62
78909;BME280;68298;37.368;127.108;2023-03-14T06:19:38;100527.09;;;18.15;27.22
78909;BME280;68298;37.368;127.108;2023-03-14T06:22:11;100527.34;;;18.12;27.93
78909;BME280;68298;37.368;127.108;2023-03-14T06:24:42;100522.94;;;18.00;27.46
78909;BME280;68298;37.368;127.108;2023-03-14T06:27:12;100525.78;;;17.84;28.06
78909;BME280;68298;37.368;127.108;2023-03-14T06:29:43;100533.75;;;17.82;27.83
78909;BME280;68298;37.368;127.108;2023-03-14T06:32:14;100526.22;;;17.78;27.13
78909;BME280;68298;37.368;127.108;2023-03-14T06:34:45;100517.34;;;17.66;27.42
78909;BME280;68298;37.368;127.108;2023-03-14T06:37:16;100509.31;;;17.69;28.14
78909;BME280;68298;37.368;127.108;2023-03-14T06:39:49;100509.38;;;17.67;27.48
78909;BME280;68298;37.368;127.108;2023-03-14T06:42:34;100508.66;;;17.53;28.19
78909;BME280;68298;37.368;127.108;2023-03-14T06:45:05;100521.53;;;17.56;28.28
78909;BME280;68298;37.368;127.108;2023-03-14T06:47:36;100519.75;;;17.56;27.75
78909;BME280;68298;37.368;127.108;2023-03-14T06:50:09;100515.28;;;17.58;28.80
78909;BME280;68298;37.368;127.108;2023-03-14T06:52:40;100525.00;;;17.56;29.40
78909;BME280;68298;37.368;127.108;2023-03-14T06:55:20;100528.88;;;17.51;30.08
78909;BME280;68298;37.368;127.108;2023-03-14T06:57:51;100534.00;;;17.52;29.30
78909;BME280;68298;37.368;127.108;2023-03-14T07:00:22;100517.34;;;17.53;30.13
78909;BME280;68298;37.368;127.108;2023-03-14T07:02:55;100515.66;;;17.52;29.03
78909;BME280;68298;37.368;127.108;2023-03-14T07:05:32;100523.22;;;17.57;29.12
78909;BME280;68298;37.368;127.108;2023-03-14T07:08:02;100511.19;;;17.54;29.37
78909;BME280;68298;37.368;127.108;2023-03-14T07:10:33;100507.81;;;17.52;28.95
78909;BME280;68298;37.368;127.108;2023-03-14T07:13:06;100507.63;;;17.55;29.98
78909;BME280;68298;37.368;127.108;2023-03-14T07:15:48;100516.00;;;17.60;28.76
78909;BME280;68298;37.368;127.108;2023-03-14T07:18:18;100508.84;;;17.62;28.99
78909;BME280;68298;37.368;127.108;2023-03-14T07:20:49;100507.19;;;17.61;29.33
78909;BME280;68298;37.368;127.108;2023-03-14T07:23:20;100507.00;;;17.64;29.31
78909;BME280;68298;37.368;127.108;2023-03-14T07:25:53;100502.69;;;17.63;28.67
78909;BME280;68298;37.368;127.108;2023-03-14T07:28:25;100502.16;;;17.71;28.89
78909;BME280;68298;37.368;127.108;2023-03-14T07:31:18;100512.47;;;17.74;28.60
78909;BME280;68298;37.368;127.108;2023-03-14T07:33:49;100505.63;;;17.72;28.29
78909;BME280;68298;37.368;127.108;2023-03-14T07:36:21;100510.25;;;17.81;28.29
78909;BME280;68298;37.368;127.108;2023-03-14T07:38:52;100503.34;;;17.80;28.62
78909;BME280;68298;37.368;127.108;2023-03-14T07:41:34;100503.47;;;17.78;28.34
78909;BME280;68298;37.368;127.108;2023-03-14T07:44:31;100516.03;;;17.73;28.25
78909;BME280;68298;37.368;127.108;2023-03-14T07:47:01;100507.94;;;17.63;29.06
78909;BME280;68298;37.368;127.108;2023-03-14T07:49:32;100503.63;;;17.62;28.55
78909;BME280;68298;37.368;127.108;2023-03-14T07:52:02;100500.47;;;17.57;28.91
78909;BME280;68298;37.368;127.108;2023-03-14T07:54:33;100506.66;;;17.56;29.10
78909;BME280;68298;37.368;127.108;2023-03-14T07:57:03;100502.56;;;17.52;28.80
78909;BME280;68298;37.368;127.108;2023-03-14T07:59:34;100504.47;;;17.50;28.68
78909;BME280;68298;37.368;127.108;2023-03-14T08:02:05;100504.91;;;17.44;28.23
78909;BME280;68298;37.368;127.108;2023-03-14T08:04:40;100507.19;;;17.49;28.84
78909;BME280;68298;37.368;127.108;2023-03-14T08:07:11;100508.34;;;17.44;27.85
78909;BME280;68298;37.368;127.108;2023-03-14T08:09:41;100500.56;;;17.43;28.13
78909;BME280;68298;37.368;127.108;2023-03-14T08:12:12;100514.91;;;17.37;28.15
78909;BME280;68298;37.368;127.108;2023-03-14T08:14:42;100511.13;;;17.29;27.79
78909;BME280;68298;37.368;127.108;2023-03-14T08:17:13;100506.84;;;17.28;28.39
78909;BME280;68298;37.368;127.108;2023-03-14T08:19:44;100510.59;;;17.24;27.92
78909;BME280;68298;37.368;127.108;2023-03-14T08:22:14;100509.03;;;17.21;28.51
78909;BME280;68298;37.368;127.108;2023-03-14T08:24:47;100503.94;;;17.05;28.42
78909;BME280;68298;37.368;127.108;2023-03-14T08:27:17;100512.97;;;17.01;27.76
78909;BME280;68298;37.368;127.108;2023-03-14T08:29:48;100514.72;;;17.01;28.16
78909;BME280;68298;37.368;127.108;2023-03-14T08:32:18;100519.13;;;17.00;28.85
78909;BME280;68298;37.368;127.108;2023-03-14T08:34:50;100517.84;;;16.93;27.68
78909;BME280;68298;37.368;127.108;2023-03-14T08:37:21;100519.72;;;16.91;28.81
78909;BME280;68298;37.368;127.108;2023-03-14T08:39:54;100523.38;;;16.88;28.68
78909;BME280;68298;37.368;127.108;2023-03-14T08:42:24;100521.72;;;16.87;27.56
78909;BME280;68298;37.368;127.108;2023-03-14T08:44:55;100522.97;;;16.82;27.94
78909;BME280;68298;37.368;127.108;2023-03-14T08:47:26;100526.69;;;16.78;27.95
78909;BME280;68298;37.368;127.108;2023-03-14T08:49:56;100535.47;;;16.77;28.68
78909;BME280;68298;37.368;127.108;2023-03-14T08:52:26;100533.78;;;16.76;28.59
78909;BME280;68298;37.368;127.108;2023-03-14T08:54:57;100522.50;;;16.75;27.70
78909;BME280;68298;37.368;127.108;2023-03-14T08:57:28;100521.91;;;16.70;28.48
78909;BME280;68298;37.368;127.108;2023-03-14T08:59:59;100526.31;;;16.70;27.72
78909;BME280;68298;37.368;127.108;2023-03-14T09:02:29;100518.75;;;16.65;27.69
78909;BME280;68298;37.368;127.108;2023-03-14T09:04:59;100526.50;;;16.66;28.47
78909;BME280;68298;37.368;127.108;2023-03-14T09:07:30;100537.91;;;16.65;28.20
78909;BME280;68298;37.368;127.108;2023-03-14T09:10:01;100536.22;;;16.64;27.82
78909;BME280;68298;37.368;127.108;2023-03-14T09:12:31;100531.84;;;16.65;28.63
78909;BME280;68298;37.368;127.108;2023-03-14T09:15:02;100547.63;;;16.63;27.52
78909;BME280;68298;37.368;127.108;2023-03-14T09:17:32;100541.47;;;16.64;27.24
78909;BME280;68298;37.368;127.108;2023-03-14T09:20:04;100543.44;;;16.61;28.23
78909;BME280;68298;37.368;127.108;2023-03-14T09:22:38;100541.88;;;16.58;28.39
78909;BME280;68298;37.368;127.108;2023-03-14T09:25:09;100545.31;;;16.59;28.33
78909;BME280;68298;37.368;127.108;2023-03-14T09:27:40;100547.28;;;16.55;27.47
78909;BME280;68298;37.368;127.108;2023-03-14T09:30:12;100543.06;;;16.53;28.04
78909;BME280;68298;37.368;127.108;2023-03-14T09:32:42;100555.00;;;16.57;28.25
78909;BME280;68298;37.368;127.108;2023-03-14T09:35:14;100554.28;;;16.55;28.38
78909;BME280;68298;37.368;127.108;2023-03-14T09:37:45;100546.53;;;16.53;27.90
78909;BME280;68298;37.368;127.108;2023-03-14T09:40:17;100557.00;;;16.53;28.25
78909;BME280;68298;37.368;127.108;2023-03-14T09:42:51;100555.41;;;16.51;28.31
78909;BME280;68298;37.368;127.108;2023-03-14T09:45:42;100561.56;;;16.50;27.52
78909;BME280;68298;37.368;127.108;2023-03-14T09:48:19;100549.53;;;16.47;28.23
78909;BME280;68298;37.368;127.108;2023-03-14T09:50:58;100557.38;;;16.47;28.18
78909;BME280;68298;37.368;127.108;2023-03-14T09:53:41;100554.97;;;16.44;28.46
78909;BME280;68298;37.368;127.108;2023-03-14T09:56:20;100552.34;;;16.44;27.76
78909;BME280;68298;37.368;127.108;2023-03-14T09:59:00;100564.66;;;16.42;27.95
78909;BME280;68298;37.368;127.108;2023-03-14T10:01:33;100569.16;;;16.40;27.83
78909;BME280;68298;37.368;127.108;2023-03-14T10:04:14;100569.25;;;16.38;27.32
78909;BME280;68298;37.368;127.108;2023-03-14T10:06:45;100573.63;;;16.38;28.48
78909;BME280;68298;37.368;127.108;2023-03-14T10:09:23;100570.38;;;16.34;28.38
78909;BME280;68298;37.368;127.108;2023-03-14T10:11:57;100573.91;;;16.33;27.51
78909;BME280;68298;37.368;127.108;2023-03-14T10:14:44;100576.53;;;16.33;27.28
78909;BME280;68298;37.368;127.108;2023-03-14T10:17:15;100574.94;;;16.31;28.46
78909;BME280;68298;37.368;127.108;2023-03-14T10:19:57;100584.47;;;16.32;28.15
78909;BME280;68298;37.368;127.108;2023-03-14T10:22:31;100585.59;;;16.28;28.26
78909;BME280;68298;37.368;127.108;2023-03-14T10:25:05;100585.59;;;16.28;27.35
78909;BME280;68298;37.368;127.108;2023-03-14T10:27:37;100594.47;;;16.25;27.67
78909;BME280;68298;37.368;127.108;2023-03-14T10:30:28;100596.41;;;16.22;27.97
78909;BME280;68298;37.368;127.108;2023-03-14T10:33:08;100598.09;;;16.23;27.30
78909;BME280;68298;37.368;127.108;2023-03-14T10:35:40;100601.53;;;16.23;27.44
78909;BME280;68298;37.368;127.108;2023-03-14T10:38:17;100601.66;;;16.22;27.40
78909;BME280;68298;37.368;127.108;2023-03-14T10:40:50;100612.00;;;16.23;28.03
78909;BME280;68298;37.368;127.108;2023-03-14T10:43:41;100608.81;;;16.18;27.32
78909;BME280;68298;37.368;127.108;2023-03-14T10:46:17;100614.88;;;16.19;27.49
78909;BME280;68298;37.368;127.108;2023-03-14T10:49:07;100617.72;;;16.15;27.29
78909;BME280;68298;37.368;127.108;2023-03-14T10:51:37;100619.56;;;16.13;28.25
78909;BME280;68298;37.368;127.108;2023-03-14T10:54:20;100614.53;;;16.10;27.52
78909;BME280;68298;37.368;127.108;2023-03-14T10:57:01;100627.50;;;16.12;27.43
78909;BME280;68298;37.368;127.108;2023-03-14T10:59:39;100630.22;;;16.10;28.40
78909;BME280;68298;37.368;127.108;2023-03-14T11:02:22;100626.00;;;16.08;27.83
78909;BME280;68298;37.368;127.108;2023-03-14T11:05:18;100628.72;;;16.06;27.97
78909;BME280;68298;37.368;127.108;2023-03-14T11:07:53;100623.66;;;16.03;28.35
78909;BME280;68298;37.368;127.108;2023-03-14T11:10:36;100627.22;;;16.02;28.03
78909;BME280;68298;37.368;127.108;2023-03-14T11:18:28;100631.59;;;16.02;28.61
78909;BME280;68298;37.368;127.108;2023-03-14T11:21:34;100631.69;;;16.00;28.08
78909;BME280;68298;37.368;127.108;2023-03-14T11:24:33;100630.09;;;15.98;28.34
78909;BME280;68298;37.368;127.108;2023-03-14T11:30:43;100638.09;;;15.95;28.49
78909;BME280;68298;37.368;127.108;2023-03-14T11:33:22;100638.94;;;15.95;27.92
78909;BME280;68298;37.368;127.108;2023-03-14T11:36:08;100638.38;;;15.90;28.45
78909;BME280;68298;37.368;127.108;2023-03-14T11:38:48;100640.97;;;15.90;28.17
78909;BME280;68298;37.368;127.108;2023-03-14T11:41:41;100645.38;;;15.89;28.25
78909;BME280;68298;37.368;127.108;2023-03-14T11:44:37;100644.53;;;15.89;28.54
78909;BME280;68298;37.368;127.108;2023-03-14T11:47:19;100648.25;;;15.85;27.70
78909;BME280;68298;37.368;127.108;2023-03-14T11:55:34;100645.84;;;15.82;28.75
78909;BME280;68298;37.368;127.108;2023-03-14T12:00:48;100658.22;;;15.78;28.13
78909;BME280;68298;37.368;127.108;2023-03-14T12:03:39;100665.13;;;15.79;28.15
78909;BME280;68298;37.368;127.108;2023-03-14T12:09:04;100650.50;;;15.77;28.97
78909;BME280;68298;37.368;127.108;2023-03-14T12:11:40;100651.31;;;15.77;29.11
78909;BME280;68298;37.368;127.108;2023-03-14T12:14:44;100657.56;;;15.75;28.14
78909;BME280;68298;37.368;127.108;2023-03-14T12:17:23;100661.84;;;15.76;28.78
78909;BME280;68298;37.368;127.108;2023-03-14T12:22:45;100675.00;;;15.74;29.01
78909;BME280;68298;37.368;127.108;2023-03-14T12:30:41;100684.03;;;15.69;29.50
78909;BME280;68298;37.368;127.108;2023-03-14T12:35:57;100688.50;;;15.67;28.83
78909;BME280;68298;37.368;127.108;2023-03-14T12:41:29;100699.97;;;15.64;29.55
78909;BME280;68298;37.368;127.108;2023-03-14T12:49:52;100695.63;;;15.63;29.48
78909;BME280;68298;37.368;127.108;2023-03-14T12:58:59;100698.25;;;15.63;29.58
78909;BME280;68298;37.368;127.108;2023-03-14T13:01:29;100696.75;;;15.59;29.02
78909;BME280;68298;37.368;127.108;2023-03-14T13:04:09;100691.63;;;15.57;29.43
78909;BME280;68298;37.368;127.108;2023-03-14T13:07:00;100694.28;;;15.56;29.48
78909;BME280;68298;37.368;127.108;2023-03-14T13:12:10;100693.66;;;15.52;29.98
78909;BME280;68298;37.368;127.108;2023-03-14T13:14:45;100695.47;;;15.50;30.08
78909;BME280;68298;37.368;127.108;2023-03-14T13:17:29;100686.81;;;15.50;29.90
78909;BME280;68298;37.368;127.108;2023-03-14T13:20:31;100686.91;;;15.48;29.50
78909;BME280;68298;37.368;127.108;2023-03-14T13:23:01;100692.13;;;15.48;29.99
78909;BME280;68298;37.368;127.108;2023-03-14T13:25:35;100687.81;;;15.47;29.71
78909;BME280;68298;37.368;127.108;2023-03-14T13:28:08;100678.41;;;15.45;29.68
78909;BME280;68298;37.368;127.108;2023-03-14T13:30:45;100674.00;;;15.45;30.25
78909;BME280;68298;37.368;127.108;2023-03-14T13:33:18;100677.63;;;15.43;29.59
78909;BME280;68298;37.368;127.108;2023-03-14T13:35:54;100680.16;;;15.44;29.59
78909;BME280;68298;37.368;127.108;2023-03-14T13:38:27;100689.78;;;15.44;29.36
78909;BME280;68298;37.368;127.108;2023-03-14T13:41:04;100689.78;;;15.44;29.89
78909;BME280;68298;37.368;127.108;2023-03-14T13:43:40;100692.28;;;15.45;30.38
78909;BME280;68298;37.368;127.108;2023-03-14T13:46:22;100691.59;;;15.42;30.17
78909;BME280;68298;37.368;127.108;2023-03-14T13:49:06;100680.22;;;15.43;29.88
78909;BME280;68298;37.368;127.108;2023-03-14T13:51:39;100676.28;;;15.35;30.19
78909;BME280;68298;37.368;127.108;2023-03-14T13:54:18;100679.66;;;15.37;30.61
78909;BME280;68298;37.368;127.108;2023-03-14T13:56:59;100678.91;;;15.35;30.59
78909;BME280;68298;37.368;127.108;2023-03-14T13:59:32;100681.53;;;15.35;30.54
78909;BME280;68298;37.368;127.108;2023-03-14T14:02:13;100686.75;;;15.35;30.12
78909;BME280;68298;37.368;127.108;2023-03-14T14:04:46;100685.91;;;15.35;30.13
78909;BME280;68298;37.368;127.108;2023-03-14T14:07:18;100688.50;;;15.35;30.20
78909;BME280;68298;37.368;127.108;2023-03-14T14:09:50;100692.97;;;15.33;30.42